Time;durP1;ratioP1;P1;durP2;ratioP2;P2;SDS_P1;SDS_P2;PMS_P1;PMS_P2;Temp;Humidity;BMP_temperature;BMP_pressure;BME280_temperature;BME280_humidity;BME280_pressure;Samples;Min_cycle;Max_cycle;Signal;HPM_P1;HPM_P2
2022/05/22 00:01:54;;;;;;;;;;;;;;;19.84;100.00;99246.09;5021809;28;19925;-40
2022/05/22 00:04:20;;;;;;;;;;;;;;;20.22;100.00;99245.28;5022393;28;20433;-40
2022/05/22 00:06:45;;;;;;;;;;;;;;;20.00;100.00;99236.31;5024622;28;19920;-40
2022/05/22 00:09:10;;;;;;;;;;;;;;;19.95;100.00;99232.31;5022531;28;19979;-40
2022/05/22 00:11:35;;;;;;;;;;;;;;;19.72;100.00;99228.63;5022814;28;19952;-40
2022/05/22 00:14:01;;;;;;;;;;;;;;;20.01;100.00;99230.13;5020922;28;19913;-39
2022/05/22 00:16:40;;;;;;;;;;;;;;;20.22;100.00;99232.22;5020910;28;19928;-40
2022/05/22 00:19:10;;;;;;;;;;;;;;;20.20;100.00;99234.94;5023528;28;20023;-40
2022/05/22 00:21:35;;;;;;;;;;;;;;;20.43;100.00;99233.34;5021562;28;19925;-40
2022/05/22 00:24:01;;;;;;;;;;;;;;;20.43;100.00;99227.28;5027645;28;20410;-40
2022/05/22 00:26:26;;;;;;;;;;;;;;;20.33;100.00;99221.03;5005660;28;20003;-39
2022/05/22 00:28:51;;;;;;;;;;;;;;;20.27;100.00;99217.03;5022309;28;19983;-40
2022/05/22 00:31:17;;;;;;;;;;;;;;;20.20;100.00;99221.03;5023969;28;19920;-40
2022/05/22 00:33:42;;;;;;;;;;;;;;;19.96;100.00;99215.69;5028512;28;20003;-40
2022/05/22 00:36:07;;;;;;;;;;;;;;;19.88;100.00;99210.97;5031198;28;19924;-40
2022/05/22 00:38:32;;;;;;;;;;;;;;;19.80;100.00;99213.28;5026918;28;20359;-40
2022/05/22 00:40:58;;;;;;;;;;;;;;;19.47;100.00;99214.50;5025343;28;19925;-40
2022/05/22 00:43:36;;;;;;;;;;;;;;;18.45;100.00;99216.56;5023690;28;19974;-40
2022/05/22 00:46:02;;;;;;;;;;;;;;;18.30;100.00;99219.19;5023319;28;19936;-40
2022/05/22 00:48:27;;;;;;;;;;;;;;;18.60;100.00;99210.44;5024963;28;19920;-40
2022/05/22 00:50:54;;;;;;;;;;;;;;;19.17;100.00;99205.13;5023414;28;19917;-40
2022/05/22 00:53:19;;;;;;;;;;;;;;;19.18;100.00;99200.72;5002172;28;19925;-40
2022/05/22 00:55:44;;;;;;;;;;;;;;;19.50;100.00;99205.63;5023182;28;19932;-40
2022/05/22 00:58:10;;;;;;;;;;;;;;;19.70;100.00;99206.97;5004191;28;19925;-40
2022/05/22 01:00:35;;;;;;;;;;;;;;;19.80;100.00;99201.03;5005903;28;19933;-40
2022/05/22 01:05:48;;;;;;;;;;;;;;;19.37;100.00;99203.00;5027176;28;19951;-40
2022/05/22 01:08:13;;;;;;;;;;;;;;;18.74;100.00;99217.41;5025298;28;20374;-40
2022/05/22 01:10:41;;;;;;;;;;;;;;;18.60;100.00;99218.25;5027168;28;19920;-40
2022/05/22 01:13:07;;;;;;;;;;;;;;;18.35;100.00;99217.13;5026279;28;19917;-40
2022/05/22 01:15:32;;;;;;;;;;;;;;;18.01;100.00;99213.09;5028217;28;19947;-40
2022/05/22 01:17:57;;;;;;;;;;;;;;;17.73;100.00;99213.88;5026333;28;20262;-40
2022/05/22 01:20:22;;;;;;;;;;;;;;;17.94;100.00;99202.22;5027924;28;19921;-39
2022/05/22 01:22:48;;;;;;;;;;;;;;;18.93;100.00;99207.53;5026828;28;19928;-39
2022/05/22 01:25:13;;;;;;;;;;;;;;;19.10;100.00;99205.63;5026292;28;19928;-40
2022/05/22 01:27:38;;;;;;;;;;;;;;;18.94;100.00;99203.16;5022456;28;19924;-39
2022/05/22 01:30:13;;;;;;;;;;;;;;;19.15;100.00;99199.16;5008934;28;20367;-40
2022/05/22 01:32:39;;;;;;;;;;;;;;;18.79;100.00;99189.28;5023947;28;19921;-40
2022/05/22 01:35:05;;;;;;;;;;;;;;;18.01;100.00;99191.44;5027013;28;19921;-40
2022/05/22 01:37:30;;;;;;;;;;;;;;;18.17;100.00;99181.75;5030963;28;20646;-39
2022/05/22 01:39:55;;;;;;;;;;;;;;;18.02;100.00;99177.47;5029886;28;19979;-40
2022/05/22 01:42:20;;;;;;;;;;;;;;;17.96;100.00;99173.47;5027789;28;19931;-39
2022/05/22 01:44:46;;;;;;;;;;;;;;;18.51;100.00;99180.53;5033538;28;19921;-39
2022/05/22 01:47:11;;;;;;;;;;;;;;;18.76;100.00;99174.63;5034852;28;20007;-39
2022/05/22 01:49:36;;;;;;;;;;;;;;;18.71;100.00;99165.44;5020986;28;19956;-40
2022/05/22 01:52:02;;;;;;;;;;;;;;;18.83;100.00;99179.50;5037880;28;19917;-40
2022/05/22 01:54:27;;;;;;;;;;;;;;;18.83;100.00;99174.28;5034184;28;19947;-40
2022/05/22 01:56:52;;;;;;;;;;;;;;;18.97;100.00;99169.00;5026135;28;19963;-39
2022/05/22 01:59:18;;;;;;;;;;;;;;;19.04;100.00;99175.50;5022388;28;19921;-39
2022/05/22 02:01:45;;;;;;;;;;;;;;;18.79;100.00;99174.47;5025411;28;20224;-39
2022/05/22 02:04:10;;;;;;;;;;;;;;;18.65;100.00;99165.81;5023421;28;20707;-39
2022/05/22 02:06:35;;;;;;;;;;;;;;;18.34;100.00;99168.53;5027313;28;19917;-40
2022/05/22 02:09:20;;;;;;;;;;;;;;;18.49;100.00;99165.91;5025366;28;20283;-40
2022/05/22 02:11:46;;;;;;;;;;;;;;;18.40;100.00;99172.53;5023092;28;19920;-40
2022/05/22 02:14:11;;;;;;;;;;;;;;;18.70;100.00;99182.84;5027215;28;19917;-40
2022/05/22 02:16:36;;;;;;;;;;;;;;;18.73;100.00;99182.66;5025444;28;19927;-39
2022/05/22 02:19:02;;;;;;;;;;;;;;;18.74;100.00;99176.50;5024644;28;19921;-39
2022/05/22 02:21:29;;;;;;;;;;;;;;;18.84;100.00;99186.38;5004669;28;20467;-40
2022/05/22 02:23:54;;;;;;;;;;;;;;;18.69;100.00;99181.16;5022530;28;19928;-39
2022/05/22 02:26:20;;;;;;;;;;;;;;;18.52;100.00;99182.22;5025273;28;20297;-40
2022/05/22 02:28:45;;;;;;;;;;;;;;;18.36;100.00;99182.31;5025744;28;19925;-39
2022/05/22 02:31:10;;;;;;;;;;;;;;;18.56;100.00;99178.47;5028216;28;19927;-40
2022/05/22 02:33:36;;;;;;;;;;;;;;;18.53;100.00;99180.44;5024155;28;19935;-40
2022/05/22 02:36:03;;;;;;;;;;;;;;;18.42;100.00;99175.06;5025894;28;19960;-39
2022/05/22 02:38:28;;;;;;;;;;;;;;;18.42;100.00;99167.22;5026246;28;20019;-40
2022/05/22 02:40:54;;;;;;;;;;;;;;;18.39;100.00;99150.00;5023254;28;19925;-40
2022/05/22 02:43:19;;;;;;;;;;;;;;;18.43;100.00;99155.84;5022901;28;20020;-39
2022/05/22 02:45:44;;;;;;;;;;;;;;;18.38;100.00;99149.19;5024740;28;20003;-39
2022/05/22 02:48:10;;;;;;;;;;;;;;;18.27;100.00;99149.00;5024749;28;19921;-40
2022/05/22 02:50:37;;;;;;;;;;;;;;;18.33;100.00;99146.00;5025126;28;21028;-39
2022/05/22 02:53:03;;;;;;;;;;;;;;;18.35;100.00;99144.13;5024421;28;19972;-40
2022/05/22 02:55:28;;;;;;;;;;;;;;;18.56;100.00;99136.72;5027279;28;19947;-40
2022/05/22 02:57:53;;;;;;;;;;;;;;;18.25;100.00;99137.81;5020632;28;19936;-40
2022/05/22 03:00:20;;;;;;;;;;;;;;;17.95;100.00;99136.16;5027416;28;19921;-39
2022/05/22 03:02:45;;;;;;;;;;;;;;;17.78;100.00;99128.47;5022972;28;20147;-39
2022/05/22 03:05:11;;;;;;;;;;;;;;;18.01;100.00;99126.28;5027732;28;19943;-40
2022/05/22 03:07:36;;;;;;;;;;;;;;;18.11;100.00;99117.81;5026402;28;19920;-40
2022/05/22 03:10:03;;;;;;;;;;;;;;;17.85;100.00;99119.38;5002713;28;19917;-40
2022/05/22 03:12:28;;;;;;;;;;;;;;;17.92;100.00;99107.66;5026022;28;19924;-39
2022/05/22 03:14:55;;;;;;;;;;;;;;;18.09;100.00;99111.88;5020664;28;19926;-40
2022/05/22 03:17:20;;;;;;;;;;;;;;;18.06;100.00;99105.97;5022032;28;19956;-40
2022/05/22 03:19:45;;;;;;;;;;;;;;;18.15;100.00;99100.22;5022332;28;19925;-39
2022/05/22 03:22:11;;;;;;;;;;;;;;;18.13;100.00;99096.84;5019761;28;19935;-40
2022/05/22 03:24:36;;;;;;;;;;;;;;;18.07;100.00;99092.88;5023429;28;19920;-40
2022/05/22 03:27:02;;;;;;;;;;;;;;;18.12;100.00;99105.63;5018682;28;19975;-39
2022/05/22 03:29:27;;;;;;;;;;;;;;;18.15;100.00;99100.22;5003581;28;20009;-40
2022/05/22 03:31:53;;;;;;;;;;;;;;;18.27;100.00;99112.50;5020600;28;20630;-39
2022/05/22 03:34:18;;;;;;;;;;;;;;;18.27;100.00;99109.91;5019929;28;19946;-40
2022/05/22 03:36:43;;;;;;;;;;;;;;;18.34;100.00;99115.56;5021313;28;19948;-40
2022/05/22 03:39:08;;;;;;;;;;;;;;;18.34;100.00;99115.56;5020420;28;19921;-39
2022/05/22 03:41:34;;;;;;;;;;;;;;;18.30;100.00;99114.06;5022199;28;19924;-40
2022/05/22 03:44:00;;;;;;;;;;;;;;;18.35;100.00;99112.84;5021151;28;20013;-40
2022/05/22 03:46:25;;;;;;;;;;;;;;;18.47;100.00;99110.41;5024026;28;19921;-40
2022/05/22 03:48:50;;;;;;;;;;;;;;;18.34;100.00;99113.78;5023366;28;19921;-40
2022/05/22 03:51:15;;;;;;;;;;;;;;;18.08;100.00;99111.94;5007288;28;20469;-40
2022/05/22 03:53:41;;;;;;;;;;;;;;;18.25;100.00;99111.75;5023259;28;20158;-40
2022/05/22 03:56:13;;;;;;;;;;;;;;;18.17;100.00;99113.97;5024699;28;19925;-40
2022/05/22 03:58:39;;;;;;;;;;;;;;;18.20;100.00;99113.81;5023685;28;19996;-40
2022/05/22 04:01:04;;;;;;;;;;;;;;;17.01;100.00;99122.50;5024163;28;19933;-40
2022/05/22 04:03:30;;;;;;;;;;;;;;;17.56;100.00;99118.47;5021346;28;19927;-40
2022/05/22 04:05:55;;;;;;;;;;;;;;;18.17;100.00;99107.00;5022806;28;19964;-40
2022/05/22 04:08:20;;;;;;;;;;;;;;;18.28;100.00;99108.13;5023188;28;19956;-40
2022/05/22 04:10:45;;;;;;;;;;;;;;;18.14;100.00;99106.38;5025421;28;19964;-40
2022/05/22 04:13:10;;;;;;;;;;;;;;;18.08;100.00;99106.72;5021649;28;20024;-40
2022/05/22 04:15:36;;;;;;;;;;;;;;;17.72;100.00;99105.38;5025207;28;20416;-40
2022/05/22 04:18:01;;;;;;;;;;;;;;;17.95;100.00;99099.69;5021878;28;19924;-40
2022/05/22 04:20:26;;;;;;;;;;;;;;;17.64;100.00;99097.19;5022350;28;19921;-40
2022/05/22 04:25:35;;;;;;;;;;;;;;;17.00;100.00;99104.38;5024196;28;19930;-40
2022/05/22 04:28:00;;;;;;;;;;;;;;;17.70;100.00;99100.28;5024832;28;19917;-40
2022/05/22 04:30:26;;;;;;;;;;;;;;;18.46;100.00;99087.88;5005832;28;19968;-40
2022/05/22 04:32:52;;;;;;;;;;;;;;;18.35;100.00;99091.97;5026130;28;19916;-40
2022/05/22 04:35:17;;;;;;;;;;;;;;;15.93;100.00;99108.44;5024542;28;19956;-40
2022/05/22 04:37:43;;;;;;;;;;;;;;;15.89;100.00;99116.38;5008501;28;20032;-40
2022/05/22 04:40:09;;;;;;;;;;;;;;;17.68;100.00;99107.34;5029153;28;20863;-40
2022/05/22 04:42:34;;;;;;;;;;;;;;;16.66;100.00;99099.28;5029547;28;19972;-40
2022/05/22 04:44:59;;;;;;;;;;;;;;;17.08;100.00;99092.63;5029099;28;20753;-40
2022/05/22 04:47:25;;;;;;;;;;;;;;;16.66;100.00;99101.03;5029154;28;20038;-40
2022/05/22 04:49:50;;;;;;;;;;;;;;;16.87;100.00;99088.63;5033909;28;19965;-40
2022/05/22 04:52:15;;;;;;;;;;;;;;;16.34;100.00;99105.41;5030513;28;20983;-40
2022/05/22 04:54:40;;;;;;;;;;;;;;;18.16;100.00;99096.69;5037201;28;19920;-40
2022/05/22 04:57:06;;;;;;;;;;;;;;;18.71;100.00;99093.22;5036784;28;20341;-40
2022/05/22 04:59:31;;;;;;;;;;;;;;;18.84;100.00;99092.44;5041065;28;19921;-40
2022/05/22 05:01:56;;;;;;;;;;;;;;;19.10;100.00;99088.97;5037341;28;20444;-40
2022/05/22 05:04:21;;;;;;;;;;;;;;;19.21;100.00;99099.56;5038269;28;20294;-40
2022/05/22 05:06:46;;;;;;;;;;;;;;;19.01;100.00;99102.63;5034014;28;20577;-40
2022/05/22 05:09:12;;;;;;;;;;;;;;;19.49;100.00;99109.94;5035854;28;19921;-40
2022/05/22 05:11:37;;;;;;;;;;;;;;;19.82;100.00;99101.63;5038108;28;20366;-40
2022/05/22 05:14:02;;;;;;;;;;;;;;;18.82;100.00;99097.78;5033970;28;19921;-40
2022/05/22 05:16:28;;;;;;;;;;;;;;;17.68;100.00;99096.09;5034136;28;19957;-40
2022/05/22 05:18:53;;;;;;;;;;;;;;;17.73;100.00;99105.28;5031901;28;19924;-40
2022/05/22 05:21:19;;;;;;;;;;;;;;;17.62;100.00;99102.50;5022756;28;20270;-40
2022/05/22 05:23:44;;;;;;;;;;;;;;;19.07;100.00;99104.84;5039106;28;19931;-40
2022/05/22 05:26:10;;;;;;;;;;;;;;;20.16;100.00;99104.50;5039320;28;20424;-40
2022/05/22 05:28:35;;;;;;;;;;;;;;;20.80;100.00;99106.97;5038508;28;19924;-40
2022/05/22 05:31:00;;;;;;;;;;;;;;;21.00;100.00;99105.50;5041831;28;19921;-40
2022/05/22 05:33:25;;;;;;;;;;;;;;;20.54;100.00;99114.06;5039308;28;19920;-40
2022/05/22 05:35:51;;;;;;;;;;;;;;;20.38;100.00;99122.97;5039424;28;19966;-40
2022/05/22 05:38:16;;;;;;;;;;;;;;;20.64;100.00;99120.31;5038061;28;20374;-40
2022/05/22 05:40:41;;;;;;;;;;;;;;;20.70;100.00;99113.81;5042865;28;19920;-40
2022/05/22 05:43:07;;;;;;;;;;;;;;;20.54;100.00;99124.50;5038018;28;20301;-40
2022/05/22 05:45:32;;;;;;;;;;;;;;;20.20;100.00;99119.03;5037540;28;19957;-38
2022/05/22 05:47:58;;;;;;;;;;;;;;;20.45;100.00;99100.66;5038706;28;19921;-38
2022/05/22 05:50:25;;;;;;;;;;;;;;;20.57;100.00;99099.00;5028493;28;19920;-40
2022/05/22 05:52:51;;;;;;;;;;;;;;;20.27;100.00;99092.38;5028498;28;20006;-40
2022/05/22 05:55:16;;;;;;;;;;;;;;;20.85;100.00;99081.31;5027690;28;19917;-40
2022/05/22 05:57:42;;;;;;;;;;;;;;;20.21;100.00;99078.88;5026433;28;19921;-40
2022/05/22 06:00:08;;;;;;;;;;;;;;;19.94;100.00;99085.09;5028666;28;19928;-40
2022/05/22 06:02:33;;;;;;;;;;;;;;;20.86;100.00;99072.50;5027265;28;19920;-40
2022/05/22 06:04:58;;;;;;;;;;;;;;;21.34;100.00;99069.78;5015296;28;19921;-40
2022/05/22 06:07:24;;;;;;;;;;;;;;;21.55;100.00;99069.97;5025661;28;20283;-40
2022/05/22 06:09:49;;;;;;;;;;;;;;;21.91;100.00;99066.31;5029833;28;19917;-40
2022/05/22 06:12:14;;;;;;;;;;;;;;;21.07;100.00;99065.69;5010519;28;20282;-40
2022/05/22 06:14:39;;;;;;;;;;;;;;;21.41;100.00;99062.34;5028807;28;19916;-40
2022/05/22 06:17:05;;;;;;;;;;;;;;;21.24;100.00;99059.19;5025211;28;20265;-40
2022/05/22 06:22:15;;;;;;;;;;;;;;;20.26;100.00;99074.16;5027612;28;20543;-40
2022/05/22 06:24:40;;;;;;;;;;;;;;;21.18;100.00;99062.25;5029043;28;19916;-40
2022/05/22 06:27:05;;;;;;;;;;;;;;;21.65;100.00;99065.72;5027750;28;19925;-40
2022/05/22 06:29:30;;;;;;;;;;;;;;;21.37;100.00;99068.72;5025907;28;19917;-40
2022/05/22 06:31:56;;;;;;;;;;;;;;;22.07;100.00;99071.19;5028115;28;19921;-40
2022/05/22 06:34:24;;;;;;;;;;;;;;;21.70;100.00;99078.47;5029620;28;19974;-40
2022/05/22 06:36:50;;;;;;;;;;;;;;;20.67;100.00;99081.69;5024811;28;19921;-40
2022/05/22 06:41:59;;;;;;;;;;;;;;;20.55;100.00;99076.47;5030096;28;19943;-40
2022/05/22 06:44:24;;;;;;;;;;;;;;;21.69;100.00;99069.78;5036759;28;19921;-40
2022/05/22 06:46:49;;;;;;;;;;;;;;;21.34;100.00;99076.81;5027123;28;19921;-40
2022/05/22 06:49:14;;;;;;;;;;;;;;;20.53;100.00;99086.22;5028796;28;20024;-38
2022/05/22 06:51:40;;;;;;;;;;;;;;;20.06;100.00;99088.63;5008772;28;20595;-38
2022/05/22 06:54:05;;;;;;;;;;;;;;;20.25;100.00;99096.00;5026040;28;20772;-38
2022/05/22 06:56:30;;;;;;;;;;;;;;;21.00;100.00;99093.25;5032826;28;19917;-38
2022/05/22 06:58:55;;;;;;;;;;;;;;;21.35;100.00;99081.09;5024659;28;19932;-40
2022/05/22 07:01:21;;;;;;;;;;;;;;;21.54;100.00;99078.78;5029590;28;19925;-40
2022/05/22 07:03:46;;;;;;;;;;;;;;;19.72;100.00;99090.13;5015168;28;19921;-40
2022/05/22 07:06:11;;;;;;;;;;;;;;;20.89;100.00;99080.97;5030992;28;19979;-40
2022/05/22 07:08:37;;;;;;;;;;;;;;;21.35;100.00;99076.72;5028221;28;19920;-40
2022/05/22 07:13:46;;;;;;;;;;;;;;;22.41;100.00;99065.91;5032128;28;19931;-40
2022/05/22 07:16:11;;;;;;;;;;;;;;;22.80;95.26;99071.53;5030218;28;19916;-40
2022/05/22 07:18:36;;;;;;;;;;;;;;;23.07;97.81;99068.47;5030200;28;19917;-40
2022/05/22 07:21:01;;;;;;;;;;;;;;;22.00;98.26;99070.00;5026334;28;19975;-40
2022/05/22 07:23:27;;;;;;;;;;;;;;;23.04;94.38;99073.16;5027613;28;19916;-40
2022/05/22 07:25:53;;;;;;;;;;;;;;;22.10;100.00;99076.22;5029579;28;20389;-40
2022/05/22 07:28:18;;;;;;;;;;;;;;;23.42;96.08;99069.94;5027994;28;19917;-40
2022/05/22 07:30:44;;;;;;;;;;;;;;;23.03;94.86;99068.84;5007898;28;20441;-40
2022/05/22 07:33:09;;;;;;;;;;;;;;;22.81;96.61;99075.84;5028416;28;19965;-40
2022/05/22 07:35:35;;;;;;;;;;;;;;;22.71;93.31;99077.53;5023625;28;19921;-40
2022/05/22 07:38:01;;;;;;;;;;;;;;;22.37;94.83;99082.88;5024859;28;19917;-40
2022/05/22 07:40:27;;;;;;;;;;;;;;;21.04;100.00;99080.78;5023324;28;19917;-40
2022/05/22 07:42:52;;;;;;;;;;;;;;;22.57;97.06;99078.66;5031059;28;20427;-40
2022/05/22 07:45:17;;;;;;;;;;;;;;;21.80;100.00;99078.56;5029350;28;19921;-40
2022/05/22 07:47:43;;;;;;;;;;;;;;;23.35;97.41;99074.88;5029667;28;19917;-40
2022/05/22 07:50:17;;;;;;;;;;;;;;;23.13;92.36;99075.03;5023700;28;19921;-40
2022/05/22 07:52:43;;;;;;;;;;;;;;;23.53;94.31;99074.28;5024358;28;20008;-40
2022/05/22 07:55:14;;;;;;;;;;;;;;;24.41;89.79;99063.16;5027325;28;20028;-41
2022/05/22 07:57:40;;;;;;;;;;;;;;;22.84;94.27;99074.75;5010627;28;19929;-40
2022/05/22 08:00:06;;;;;;;;;;;;;;;23.68;100.00;99065.13;5027788;28;19921;-40
2022/05/22 08:02:31;;;;;;;;;;;;;;;23.88;93.45;99065.22;5024962;28;20272;-40
2022/05/22 08:04:58;;;;;;;;;;;;;;;24.09;88.99;99063.38;5026414;28;19924;-40
2022/05/22 08:07:23;;;;;;;;;;;;;;;23.89;95.19;99056.38;5024482;28;20068;-40
2022/05/22 08:09:48;;;;;;;;;;;;;;;21.86;100.00;99067.63;5023685;28;19921;-37
2022/05/22 08:12:13;;;;;;;;;;;;;;;24.49;91.09;99048.53;5023535;28;19917;-40
2022/05/22 08:14:39;;;;;;;;;;;;;;;24.24;89.07;99049.81;5026049;28;19921;-40
2022/05/22 08:17:05;;;;;;;;;;;;;;;24.72;84.34;99043.81;5025891;28;19931;-40
2022/05/22 08:19:30;;;;;;;;;;;;;;;23.85;85.36;99049.72;5025203;28;20153;-40
2022/05/22 08:21:55;;;;;;;;;;;;;;;24.83;85.72;99047.16;5005478;28;19929;-40
2022/05/22 08:24:20;;;;;;;;;;;;;;;23.81;86.55;99046.50;5026581;28;20913;-40
2022/05/22 08:26:46;;;;;;;;;;;;;;;23.76;86.37;99052.16;5009322;28;19944;-40
2022/05/22 08:29:11;;;;;;;;;;;;;;;24.00;89.10;99054.47;5024839;28;20084;-40
2022/05/22 08:31:37;;;;;;;;;;;;;;;24.38;85.78;99041.53;5023319;28;20012;-40
2022/05/22 08:34:02;;;;;;;;;;;;;;;24.98;85.27;99047.56;5022641;28;19917;-40
2022/05/22 08:36:27;;;;;;;;;;;;;;;26.02;76.95;99039.72;5023306;28;19921;-40
2022/05/22 08:38:53;;;;;;;;;;;;;;;25.33;82.21;99038.25;5023222;28;19921;-40
2022/05/22 08:41:22;;;;;;;;;;;;;;;26.23;77.40;99035.97;5020474;28;19935;-40
2022/05/22 08:43:52;;;;;;;;;;;;;;;25.68;76.55;99036.75;5003374;28;20512;-40
2022/05/22 08:46:22;;;;;;;;;;;;;;;25.95;81.18;99032.50;5009153;28;19923;-40
2022/05/22 08:48:56;;;;;;;;;;;;;;;26.97;76.42;99024.31;5002871;28;19928;-40
2022/05/22 08:51:31;;;;;;;;;;;;;;;26.91;75.67;99022.25;5028775;28;20018;-40
2022/05/22 08:53:58;;;;;;;;;;;;;;;26.23;76.27;99026.25;5005857;28;20313;-40
2022/05/22 08:59:12;;;;;;;;;;;;;;;26.31;73.15;99032.59;5024530;28;19954;-40
2022/05/22 09:02:03;;;;;;;;;;;;;;;25.41;67.13;99030.47;5027140;28;20031;-40
2022/05/22 09:04:39;;;;;;;;;;;;;;;26.59;65.21;99018.34;4985393;28;19924;-40
2022/05/22 09:07:07;;;;;;;;;;;;;;;27.04;65.57;99011.31;5008455;28;19921;-38
2022/05/22 09:09:33;;;;;;;;;;;;;;;27.09;62.78;99011.66;5024565;28;19917;-38
2022/05/22 09:12:03;;;;;;;;;;;;;;;27.69;62.91;99018.84;5013669;28;19916;-38
2022/05/22 09:14:37;;;;;;;;;;;;;;;26.74;72.26;99012.56;5030603;28;19952;-38
2022/05/22 09:17:02;;;;;;;;;;;;;;;26.21;77.06;99011.53;5025228;28;19927;-38
2022/05/22 09:19:37;;;;;;;;;;;;;;;26.32;76.31;99013.13;5024988;28;19916;-39
2022/05/22 09:22:10;;;;;;;;;;;;;;;25.91;77.87;98995.03;5002342;28;19939;-39
2022/05/22 09:24:42;;;;;;;;;;;;;;;26.33;75.23;98998.94;5028059;28;19924;-39
2022/05/22 09:27:08;;;;;;;;;;;;;;;25.63;74.51;98996.78;5028377;28;19928;-39
2022/05/22 09:29:53;;;;;;;;;;;;;;;27.22;75.35;98990.16;5028257;28;19916;-39
2022/05/22 09:32:18;;;;;;;;;;;;;;;26.49;74.57;98993.81;5015206;28;19967;-39
2022/05/22 09:34:49;;;;;;;;;;;;;;;26.43;69.29;98983.84;5028844;28;19917;-39
2022/05/22 09:37:33;;;;;;;;;;;;;;;26.12;73.05;98993.94;5034345;28;19927;-39
2022/05/22 09:40:01;;;;;;;;;;;;;;;27.68;67.17;98980.13;5033111;28;20000;-39
2022/05/22 09:42:26;;;;;;;;;;;;;;;26.13;70.42;98988.50;5037984;28;19984;-39
2022/05/22 09:45:01;;;;;;;;;;;;;;;27.39;64.93;98981.28;5032859;28;19925;-39
2022/05/22 09:47:27;;;;;;;;;;;;;;;28.11;65.40;98973.00;5018338;28;19927;-39
2022/05/22 09:50:01;;;;;;;;;;;;;;;27.32;70.40;98972.34;5025305;28;19917;-39
2022/05/22 09:52:39;;;;;;;;;;;;;;;27.42;58.81;98967.78;5007811;28;21024;-39
2022/05/22 09:55:11;;;;;;;;;;;;;;;27.28;65.91;98973.66;5014110;28;19925;-39
2022/05/22 09:57:43;;;;;;;;;;;;;;;24.76;71.12;98967.03;5029748;28;19952;-39
2022/05/22 10:00:09;;;;;;;;;;;;;;;26.43;72.87;98958.25;5014173;28;19916;-39
2022/05/22 10:02:49;;;;;;;;;;;;;;;27.71;71.81;98953.34;5033443;28;19921;-39
2022/05/22 10:05:33;;;;;;;;;;;;;;;27.46;68.68;98958.53;5027270;28;19927;-41
2022/05/22 10:08:03;;;;;;;;;;;;;;;26.90;67.67;98949.25;5030451;28;20090;-39
2022/05/22 10:10:28;;;;;;;;;;;;;;;27.27;69.84;98956.94;5029834;28;20054;-38
2022/05/22 10:12:57;;;;;;;;;;;;;;;28.99;63.61;98948.56;5034152;28;20464;-38
2022/05/22 10:15:45;;;;;;;;;;;;;;;27.74;71.19;98958.31;5037320;28;20386;-39
2022/05/22 10:18:11;;;;;;;;;;;;;;;26.61;73.23;98962.75;4996479;28;19939;-39
2022/05/22 10:20:55;;;;;;;;;;;;;;;26.90;76.53;98959.84;5032311;28;20322;-39
2022/05/22 10:23:20;;;;;;;;;;;;;;;28.75;60.28;98942.28;5031046;28;19920;-41
2022/05/22 10:25:57;;;;;;;;;;;;;;;26.28;64.08;98962.44;5032801;28;19931;-39
2022/05/22 10:28:24;;;;;;;;;;;;;;;27.44;65.66;98952.59;5029788;28;19921;-39
2022/05/22 10:30:52;;;;;;;;;;;;;;;29.07;55.79;98945.88;5011811;28;20910;-39
2022/05/22 10:33:20;;;;;;;;;;;;;;;27.94;58.54;98954.44;5031259;28;19916;-39
2022/05/22 10:35:47;;;;;;;;;;;;;;;27.97;65.08;98952.47;5028940;28;19920;-39
2022/05/22 10:38:12;;;;;;;;;;;;;;;28.88;55.03;98948.91;5012776;28;19929;-39
2022/05/22 10:43:27;;;;;;;;;;;;;;;28.43;55.22;98943.09;5036980;28;19927;-40
2022/05/22 10:45:52;;;;;;;;;;;;;;;29.52;56.38;98936.50;5031102;28;19917;-39
2022/05/22 10:48:25;;;;;;;;;;;;;;;29.20;62.04;98934.78;5026300;28;19946;-39
2022/05/22 10:51:06;;;;;;;;;;;;;;;29.52;53.03;98933.84;5033104;28;19916;-39
2022/05/22 10:53:31;;;;;;;;;;;;;;;29.88;55.50;98927.19;5029769;28;20234;-39
2022/05/22 10:56:01;;;;;;;;;;;;;;;28.11;62.68;98933.31;5027800;28;20639;-39
2022/05/22 10:58:28;;;;;;;;;;;;;;;28.98;57.24;98926.50;5025367;28;19924;-39
2022/05/22 11:01:01;;;;;;;;;;;;;;;28.52;55.66;98923.59;5013092;28;19925;-39
2022/05/22 11:03:30;;;;;;;;;;;;;;;28.19;58.57;98932.47;5027229;28;19921;-39
2022/05/22 11:05:56;;;;;;;;;;;;;;;30.09;53.78;98923.94;5025782;28;19998;-40
2022/05/22 11:08:48;;;;;;;;;;;;;;;30.06;46.50;98922.47;5030696;28;19960;-39
2022/05/22 11:11:14;;;;;;;;;;;;;;;30.94;46.89;98917.63;5024293;28;19921;-39
2022/05/22 11:13:39;;;;;;;;;;;;;;;29.28;51.58;98913.53;5030667;28;19924;-40
2022/05/22 11:16:11;;;;;;;;;;;;;;;31.47;50.49;98907.72;5031886;28;19991;-40
2022/05/22 11:18:36;;;;;;;;;;;;;;;31.49;48.98;98905.69;5029745;28;20007;-40
2022/05/22 11:21:03;;;;;;;;;;;;;;;29.83;55.39;98909.16;5034125;28;19930;-40
2022/05/22 11:23:46;;;;;;;;;;;;;;;29.92;62.01;98909.94;5029878;28;20313;-40
2022/05/22 11:26:38;;;;;;;;;;;;;;;29.72;56.27;98907.72;5012538;28;19964;-40
2022/05/22 11:29:03;;;;;;;;;;;;;;;28.67;55.24;98905.22;5026651;28;19924;-40
2022/05/22 11:31:31;;;;;;;;;;;;;;;28.87;54.45;98896.88;5029931;28;19920;-40
2022/05/22 11:34:02;;;;;;;;;;;;;;;29.45;53.82;98886.94;5030120;28;20646;-40
2022/05/22 11:36:37;;;;;;;;;;;;;;;27.15;60.22;98893.91;5030793;28;20427;-40
2022/05/22 11:39:09;;;;;;;;;;;;;;;26.41;62.77;98880.19;5025418;28;20654;-39
2022/05/22 11:41:35;;;;;;;;;;;;;;;27.21;58.36;98878.28;5006972;28;20980;-39
2022/05/22 11:44:01;;;;;;;;;;;;;;;28.98;57.54;98883.25;5025335;28;19921;-40
2022/05/22 11:46:33;;;;;;;;;;;;;;;27.64;60.37;98879.06;5027514;28;19923;-39
2022/05/22 11:49:17;;;;;;;;;;;;;;;29.22;55.69;98870.94;5008619;28;19992;-39
2022/05/22 11:51:55;;;;;;;;;;;;;;;27.31;65.00;98878.16;5010600;28;19966;-39
2022/05/22 11:54:20;;;;;;;;;;;;;;;29.33;58.51;98873.22;5021759;28;19921;-40
2022/05/22 11:56:51;;;;;;;;;;;;;;;29.39;55.67;98869.88;5025637;28;19917;-39
2022/05/22 11:59:24;;;;;;;;;;;;;;;27.81;57.44;98874.66;5005136;28;19931;-39
2022/05/22 12:02:02;;;;;;;;;;;;;;;28.81;55.29;98861.28;5006725;28;19938;-39
2022/05/22 12:04:43;;;;;;;;;;;;;;;28.60;58.08;98864.44;5009420;28;19954;-39
2022/05/22 12:07:27;;;;;;;;;;;;;;;29.38;54.00;98850.50;5009485;28;19920;-39
2022/05/22 12:10:07;;;;;;;;;;;;;;;31.62;47.84;98849.13;5026880;28;19923;-39
2022/05/22 12:12:50;;;;;;;;;;;;;;;29.84;50.48;98844.44;5023783;28;19921;-40
2022/05/22 12:15:34;;;;;;;;;;;;;;;29.86;45.81;98831.81;5009945;28;19932;-39
2022/05/22 12:17:59;;;;;;;;;;;;;;;27.90;54.40;98831.34;5022231;28;19959;-40
2022/05/22 12:20:26;;;;;;;;;;;;;;;28.94;51.13;98820.97;5027268;28;20004;-39
2022/05/22 12:23:18;;;;;;;;;;;;;;;29.02;55.40;98820.94;5012051;28;19921;-39
2022/05/22 12:25:54;;;;;;;;;;;;;;;30.08;56.82;98824.00;5026134;28;19956;-39
2022/05/22 12:28:22;;;;;;;;;;;;;;;30.42;47.85;98819.06;5038496;28;19917;-39
2022/05/22 12:30:47;;;;;;;;;;;;;;;31.80;50.25;98822.06;5035147;28;19920;-39
2022/05/22 12:33:12;;;;;;;;;;;;;;;31.44;42.54;98814.94;5033303;28;19917;-39
2022/05/22 12:35:39;;;;;;;;;;;;;;;31.70;47.63;98810.91;5031582;28;19974;-40
2022/05/22 12:38:05;;;;;;;;;;;;;;;31.16;50.74;98820.13;5016221;28;19916;-39
2022/05/22 12:40:37;;;;;;;;;;;;;;;32.14;42.47;98807.22;5031270;28;19917;-39
2022/05/22 12:43:02;;;;;;;;;;;;;;;32.06;42.99;98803.69;5028044;28;20296;-39
2022/05/22 12:45:28;;;;;;;;;;;;;;;31.03;51.69;98810.13;5015310;28;19921;-40
2022/05/22 12:47:54;;;;;;;;;;;;;;;31.73;48.86;98811.38;5008539;28;19923;-40
2022/05/22 12:50:31;;;;;;;;;;;;;;;31.80;46.25;98800.78;5012354;28;19917;-40
2022/05/22 12:52:56;;;;;;;;;;;;;;;28.78;46.49;98812.09;5026315;28;20044;-40
2022/05/22 12:55:28;;;;;;;;;;;;;;;28.26;54.08;98815.16;5029111;28;20959;-39
2022/05/22 12:57:54;;;;;;;;;;;;;;;30.05;52.50;98800.47;5018326;28;19924;-39
2022/05/22 13:00:43;;;;;;;;;;;;;;;29.40;47.70;98803.41;5029571;28;20449;-40
2022/05/22 13:03:09;;;;;;;;;;;;;;;29.97;50.57;98798.69;5019423;28;19921;-40